»·PEaware :: DAL2351 KSLC-KBOI

DAL2351 :: KSLC-KBOI

FLIGHT INFORMATION

Flight Status: Arrived
Operator:
Delta Air Lines
More flights by this operator :: More flights under this callsign
Pilot: Varun S. (14197)
Aircraft: BOEING 737-800
(B738)
More flights by this aircraft type
Origin: KSLC Salt Lake City Intl
United States
Destination: KBOI Boise Air Terminal/Gowen
United States
More flights between these airports :: More routes between these airports
Route: +CGULL1 TWF BROPH SPUUD3
File this flight plan on PilotEdge
Remarks:
Altitude:
(Current/Filed)
30,000ft
Speed:
(Current/Filed)
460kts
Departed: 03-Jul-18 11:49 AM
Arrived: 03-Jul-18 12:32 PM
Distance/Time
Traveled:
252nm/0:43
Distance/Time
To Go:
Arrived

Flight Plot

Page will automatically refresh every two minutes.

Flight plan parsing failed; only flown route is shown


Map Options




Map Legend


Flown Route
Filed Route
Departure Airport
Arrival Airport
Navaid (VOR, NDB)
Fix

Horizontal Profiles

Position Reports

Time Latitude Longitude Heading Altitude Ground
Speed
03-Jul-18 11:22 40.788046 -111.978744 113 4234ft 0kts
03-Jul-18 11:23 40.788046 -111.978744 113 4235ft 0kts
03-Jul-18 11:24 40.788046 -111.978744 113 4235ft 0kts
03-Jul-18 11:25 40.788046 -111.978744 113 4235ft 0kts
03-Jul-18 11:26 40.788046 -111.978744 113 4235ft 0kts
03-Jul-18 11:27 40.788046 -111.978744 113 4235ft 0kts
03-Jul-18 11:28 40.788046 -111.978744 113 4235ft 0kts
03-Jul-18 11:29 40.788046 -111.978744 113 4235ft 0kts
03-Jul-18 11:30 40.788046 -111.978744 113 4235ft 0kts
03-Jul-18 11:31 40.788046 -111.978744 113 4235ft 0kts
03-Jul-18 11:32 40.788046 -111.978744 113 4235ft 0kts
03-Jul-18 11:34 40.788046 -111.978744 113 4235ft 0kts
03-Jul-18 11:35 40.788046 -111.978744 113 4235ft 0kts
03-Jul-18 11:36 40.788046 -111.978744 113 4235ft 0kts
03-Jul-18 11:37 40.788046 -111.978744 113 4235ft 0kts
03-Jul-18 11:38 40.788046 -111.978744 113 4235ft 0kts
03-Jul-18 11:39 40.788046 -111.978744 113 4235ft 0kts
03-Jul-18 11:40 40.788107 -111.978925 113 4235ft 0kts
03-Jul-18 11:41 40.788107 -111.978925 113 4235ft 0kts
03-Jul-18 11:42 40.788107 -111.978925 113 4235ft 0kts
03-Jul-18 11:43 40.788107 -111.978925 113 4235ft 0kts
03-Jul-18 11:44 40.788094 -111.978885 113 4235ft 0kts
03-Jul-18 11:45 40.787928 -111.978454 117 4235ft 3kts
03-Jul-18 11:46 40.786056 -111.976535 174 4235ft 14kts
03-Jul-18 11:47 40.781797 -111.976042 174 4235ft 16kts
03-Jul-18 11:48 40.776345 -111.975393 174 4235ft 20kts
03-Jul-18 11:49 40.775408 -111.973139 357 4235ft 19kts
03-Jul-18 11:50 40.809254 -111.977523 352 4857ft 196kts
03-Jul-18 11:51 40.842435 -112.035050 292 7276ft 242kts
03-Jul-18 11:52 40.870182 -112.122654 297 10259ft 265kts
03-Jul-18 11:53 40.919540 -112.202150 311 12566ft 312kts
03-Jul-18 11:54 40.984572 -112.298578 311 13938ft 381kts
03-Jul-18 11:55 41.056887 -112.405333 315 16621ft 397kts
03-Jul-18 11:56 41.148235 -112.491916 327 19044ft 412kts
03-Jul-18 11:57 41.242440 -112.583449 322 21226ft 426kts
03-Jul-18 11:58 41.328992 -112.693657 311 23149ft 438kts
03-Jul-18 11:59 41.411958 -112.816077 311 24866ft 450kts
03-Jul-18 12:00 41.494901 -112.943324 310 26366ft 460kts
03-Jul-18 12:01 41.579417 -113.073634 310 27801ft 467kts
03-Jul-18 12:02 41.664233 -113.204300 310 29560ft 463kts
03-Jul-18 12:03 41.748644 -113.334664 310 29999ft 462kts
03-Jul-18 12:04 41.832211 -113.464602 310 29999ft 461kts
03-Jul-18 12:05 41.915950 -113.595456 310 30000ft 461kts
03-Jul-18 12:06 41.999366 -113.725949 310 29999ft 461kts
03-Jul-18 12:07 42.082699 -113.857491 310 29999ft 461kts
03-Jul-18 12:08 42.165548 -113.988990 310 29999ft 461kts
03-Jul-18 12:09 42.248545 -114.120514 310 29999ft 461kts
03-Jul-18 12:10 42.331977 -114.252484 310 29999ft 461kts
03-Jul-18 12:11 42.414649 -114.384695 310 29999ft 461kts
03-Jul-18 12:12 42.497207 -114.517060 310 29999ft 461kts
03-Jul-18 12:13 42.580290 -114.649066 310 28918ft 454kts
03-Jul-18 12:14 42.661779 -114.779964 310 26096ft 449kts
03-Jul-18 12:15 42.741856 -114.907034 313 23664ft 434kts
03-Jul-18 12:16 42.824265 -115.023490 313 21287ft 420kts
03-Jul-18 12:17 42.903248 -115.137286 313 19190ft 402kts
03-Jul-18 12:18 42.977913 -115.245075 312 17413ft 383kts
03-Jul-18 12:19 43.049375 -115.349266 312 15577ft 369kts
03-Jul-18 12:20 43.117306 -115.448763 312 13836ft 341kts
03-Jul-18 12:21 43.178705 -115.538610 312 12613ft 301kts
03-Jul-18 12:22 43.240109 -115.612998 324 10879ft 293kts
03-Jul-18 12:23 43.303484 -115.675612 324 9902ft 273kts
03-Jul-18 12:24 43.360481 -115.734293 311 8842ft 250kts
03-Jul-18 12:25 43.404376 -115.804706 310 7695ft 232kts
03-Jul-18 12:26 43.443200 -115.868135 303 6952ft 194kts
03-Jul-18 12:27 43.466269 -115.931506 294 7048ft 187kts
03-Jul-18 12:28 43.488241 -115.996230 294 6172ft 184kts
03-Jul-18 12:29 43.509597 -116.059041 294 5187ft 170kts
03-Jul-18 12:30 43.528875 -116.115652 294 4321ft 160kts
03-Jul-18 12:31 43.547675 -116.170776 294 3468ft 158kts
03-Jul-18 12:31 43.563119 -116.216211 293 2881ft 145kts
03-Jul-18 12:32 43.569126 -116.233713 294 2879ft 28kts
03-Jul-18 12:33 43.571017 -116.237417 339 2879ft 1kts
03-Jul-18 12:34 43.570756 -116.234869 114 2879ft 12kts
03-Jul-18 12:35 43.568803 -116.229103 113 2879ft 20kts
03-Jul-18 12:36 43.568552 -116.224668 96 2878ft 0kts

Navigation Log

Ident Type
Flight plan parsing failed, navigation log unavailable